Saturday, July 23, 2016, 5:05 AM EDT
Back to Local

KPTW, Pottstown Limerick Airport

Location: Royersford, PA, United States Lat: 40.233
Local Time: 5:05 AM EDT ( 9:05 GMT) Lon: -75.55
Time Zone: US/Eastern Elev: 291 ft

Show me the last for .
Show Decoded

2016-07-23 03:54 METAR KPTW 230754Z AUTO 00000KT 9SM CLR 23/19 A2990 RMK AO2 SLP120 T02280194 =
2016-07-23 02:54 METAR KPTW 230654Z AUTO 00000KT 10SM CLR 24/19 A2990 RMK AO2 SLP118 T02440194 =
2016-07-23 01:54 METAR KPTW 230554Z AUTO 31003KT 10SM CLR 25/19 A2990 RMK AO2 SLP117 T02500194
                 10306 20250 51004 =
2016-07-23 00:54 METAR KPTW 230454Z AUTO VRB03KT 10SM CLR 26/19 A2989 RMK AO2 SLP117 T02610194
                 403440200 =
2016-07-22 23:54 METAR KPTW 230354Z AUTO 00000KT 10SM CLR 27/19 A2989 RMK AO2 SLP115 T02720189 =
2016-07-22 22:54 METAR KPTW 230254Z AUTO 24005KT 10SM CLR 28/20 A2988 RMK AO2 SLP114 T02780200
                 51006 =
2016-07-22 21:54 METAR KPTW 230154Z AUTO 25003KT 10SM CLR 27/21 A2988 RMK AO2 SLP112 T02720206 =
2016-07-22 20:54 METAR KPTW 230054Z AUTO 25003KT 10SM CLR 28/21 A2987 RMK AO2 SLP110 T02830206 =
2016-07-22 19:54 METAR KPTW 222354Z AUTO 23005KT 9SM CLR 31/20 A2987 RMK AO2 SLP108 T03060200
                 10344 20306 55007 =
2016-07-22 18:54 METAR KPTW 222254Z AUTO 24009KT 9SM CLR 32/19 A2986 RMK AO2 SLP106 T03220194 =
2016-07-22 17:54 METAR KPTW 222154Z AUTO 23009G21KT 8SM FEW047 32/21 A2987 RMK AO2 SLP110
                 T03220211 =
2016-07-22 16:54 METAR KPTW 222054Z AUTO 23007KT 8SM CLR 33/21 A2989 RMK AO2 SLP115 T03330206
                 58018 =
2016-07-22 15:54 METAR KPTW 221954Z AUTO 27008G16KT 230V310 9SM FEW055 33/19 A2991 RMK AO2 SLP121
                 T03330189 =
2016-07-22 14:54 METAR KPTW 221854Z AUTO 24007KT 8SM CLR 33/21 A2992 RMK AO2 SLP126 T03330206 =
2016-07-22 13:54 METAR KPTW 221754Z AUTO VRB06G17KT 8SM CLR 33/21 A2994 RMK AO2 SLP133 T03280206
                 10333 20228 58018 =
2016-07-22 12:54 METAR KPTW 221654Z AUTO 23008KT 8SM CLR 33/21 A2996 RMK AO2 SLP138 T03280206 =
2016-07-22 11:54 METAR KPTW 221554Z AUTO 29007G15KT 8SM CLR 31/19 A2998 RMK AO2 SLP146 T03110194
                 =
2016-07-22 10:54 METAR KPTW 221454Z AUTO VRB06KT 8SM CLR 31/19 A2999 RMK AO2 SLP150 T03060194
                 58009 =
2016-07-22 09:54 METAR KPTW 221354Z AUTO VRB04KT 7SM CLR 28/20 A3000 RMK AO2 SLP155 T02830200 =
2016-07-22 08:54 METAR KPTW 221254Z AUTO 20006KT 7SM CLR 25/19 A3001 RMK AO2 SLP158 T02500194 =
2016-07-22 07:54 METAR KPTW 221154Z AUTO 23005KT 7SM CLR 23/19 A3002 RMK AO2 SLP161 T02280189
                 10228 20200 58004 =
2016-07-22 06:54 METAR KPTW 221054Z AUTO 19003KT 7SM CLR 22/18 A3002 RMK AO2 SLP161 T02170183 =
2016-07-22 05:54 METAR KPTW 220954Z AUTO 00000KT 8SM CLR 20/18 A3003 RMK AO2 SLP166 T02000178 =

Support USWX by starting your Amazon purchase here.